sensor_id;sensor_type;location;lat;lon;timestamp;pressure;altitude;pressure_sealevel;temperature;humidity
51287;BME280;37364;46.974;18.916;2023-01-29T00:01:33;150264.47;;;-0.36;100.00
51287;BME280;37364;46.974;18.916;2023-01-29T00:04:22;150258.06;;;-0.38;100.00
51287;BME280;37364;46.974;18.916;2023-01-29T00:07:00;150261.94;;;-0.37;100.00
51287;BME280;37364;46.974;18.916;2023-01-29T00:09:36;150254.22;;;-0.40;100.00
51287;BME280;37364;46.974;18.916;2023-01-29T00:12:32;150270.88;;;-0.33;100.00
51287;BME280;37364;46.974;18.916;2023-01-29T00:15:12;150255.47;;;-0.40;100.00
51287;BME280;37364;46.974;18.916;2023-01-29T00:17:55;150264.47;;;-0.36;100.00
51287;BME280;37364;46.974;18.916;2023-01-29T00:20:28;150252.94;;;-0.41;100.00
51287;BME280;37364;46.974;18.916;2023-01-29T00:23:13;150250.34;;;-0.42;100.00
51287;BME280;37364;46.974;18.916;2023-01-29T00:26:08;150240.09;;;-0.46;100.00
51287;BME280;37364;46.974;18.916;2023-01-29T00:28:49;150249.09;;;-0.42;100.00
51287;BME280;37364;46.974;18.916;2023-01-29T00:31:35;150245.22;;;-0.44;100.00
51287;BME280;37364;46.974;18.916;2023-01-29T00:34:24;150240.09;;;-0.46;100.00
51287;BME280;37364;46.974;18.916;2023-01-29T00:37:05;150240.09;;;-0.46;100.00
51287;BME280;37364;46.974;18.916;2023-01-29T00:39:55;150251.66;;;-0.41;100.00
51287;BME280;37364;46.974;18.916;2023-01-29T00:42:53;150245.22;;;-0.44;100.00
51287;BME280;37364;46.974;18.916;2023-01-29T00:45:38;150259.34;;;-0.38;100.00
51287;BME280;37364;46.974;18.916;2023-01-29T00:48:23;150255.47;;;-0.40;100.00
51287;BME280;37364;46.974;18.916;2023-01-29T00:51:06;150233.69;;;-0.48;100.00
51287;BME280;37364;46.974;18.916;2023-01-29T00:53:41;150210.56;;;-0.57;100.00
51287;BME280;37364;46.974;18.916;2023-01-29T00:56:27;150206.69;;;-0.59;100.00
51287;BME280;37364;46.974;18.916;2023-01-29T00:58:59;150184.91;;;-0.68;100.00
51287;BME280;37364;46.974;18.916;2023-01-29T01:01:29;150177.19;;;-0.71;100.00
51287;BME280;37364;46.974;18.916;2023-01-29T01:04:13;150178.50;;;-0.70;100.00
51287;BME280;37364;46.974;18.916;2023-01-29T01:06:44;150173.38;;;-0.72;100.00
51287;BME280;37364;46.974;18.916;2023-01-29T01:09:17;150175.91;;;-0.71;100.00
51287;BME280;37364;46.974;18.916;2023-01-29T01:12:05;150151.50;;;-0.81;100.00
51287;BME280;37364;46.974;18.916;2023-01-29T01:14:56;150169.50;;;-0.74;100.00
51287;BME280;37364;46.974;18.916;2023-01-29T01:17:44;150168.22;;;-0.74;100.00
51287;BME280;37364;46.974;18.916;2023-01-29T01:20:43;150152.78;;;-0.81;100.00
51287;BME280;37364;46.974;18.916;2023-01-29T01:23:35;150170.78;;;-0.73;100.00
51287;BME280;37364;46.974;18.916;2023-01-29T01:26:25;150177.19;;;-0.71;100.00
51287;BME280;37364;46.974;18.916;2023-01-29T01:29:19;150170.78;;;-0.73;100.00
51287;BME280;37364;46.974;18.916;2023-01-29T01:31:55;150193.88;;;-0.64;100.00
51287;BME280;37364;46.974;18.916;2023-01-29T01:34:38;150191.31;;;-0.65;100.00
51287;BME280;37364;46.974;18.916;2023-01-29T01:37:30;150182.31;;;-0.69;100.00
51287;BME280;37364;46.974;18.916;2023-01-29T01:40:42;150183.63;;;-0.68;100.00
51287;BME280;37364;46.974;18.916;2023-01-29T01:43:26;150191.31;;;-0.65;100.00
51287;BME280;37364;46.974;18.916;2023-01-29T01:46:13;150204.16;;;-0.60;100.00
51287;BME280;37364;46.974;18.916;2023-01-29T01:48:52;150201.56;;;-0.61;100.00
51287;BME280;37364;46.974;18.916;2023-01-29T01:51:30;150214.41;;;-0.56;100.00
51287;BME280;37364;46.974;18.916;2023-01-29T01:54:13;150205.44;;;-0.60;100.00
51287;BME280;37364;46.974;18.916;2023-01-29T01:56:51;150220.81;;;-0.53;100.00
51287;BME280;37364;46.974;18.916;2023-01-29T01:59:37;150211.81;;;-0.57;100.00
51287;BME280;37364;46.974;18.916;2023-01-29T02:02:14;150228.56;;;-0.50;100.00
51287;BME280;37364;46.974;18.916;2023-01-29T02:04:59;150213.16;;;-0.56;100.00
51287;BME280;37364;46.974;18.916;2023-01-29T02:07:46;150214.41;;;-0.56;100.00
51287;BME280;37364;46.974;18.916;2023-01-29T02:10:37;150225.97;;;-0.51;100.00
51287;BME280;37364;46.974;18.916;2023-01-29T02:13:11;150215.69;;;-0.55;100.00
51287;BME280;37364;46.974;18.916;2023-01-29T02:15:45;150218.28;;;-0.54;100.00
51287;BME280;37364;46.974;18.916;2023-01-29T02:18:21;150222.13;;;-0.53;100.00
51287;BME280;37364;46.974;18.916;2023-01-29T02:21:13;150223.41;;;-0.52;100.00
51287;BME280;37364;46.974;18.916;2023-01-29T02:24:22;150214.41;;;-0.56;100.00
51287;BME280;37364;46.974;18.916;2023-01-29T02:27:17;150218.28;;;-0.54;100.00
51287;BME280;37364;46.974;18.916;2023-01-29T02:30:09;150216.97;;;-0.55;100.00
51287;BME280;37364;46.974;18.916;2023-01-29T02:32:58;150220.81;;;-0.53;100.00
51287;BME280;37364;46.974;18.916;2023-01-29T02:35:43;150216.97;;;-0.55;100.00
51287;BME280;37364;46.974;18.916;2023-01-29T02:38:48;150214.41;;;-0.56;100.00
51287;BME280;37364;46.974;18.916;2023-01-29T02:41:56;150206.69;;;-0.59;100.00
51287;BME280;37364;46.974;18.916;2023-01-29T02:44:36;150210.56;;;-0.57;100.00
51287;BME280;37364;46.974;18.916;2023-01-29T02:47:16;150206.69;;;-0.59;100.00
51287;BME280;37364;46.974;18.916;2023-01-29T02:50:07;150214.41;;;-0.56;100.00
51287;BME280;37364;46.974;18.916;2023-01-29T02:53:04;150210.56;;;-0.57;100.00
51287;BME280;37364;46.974;18.916;2023-01-29T02:55:56;150199.03;;;-0.62;100.00
51287;BME280;37364;46.974;18.916;2023-01-29T02:58:58;150210.56;;;-0.57;100.00
51287;BME280;37364;46.974;18.916;2023-01-29T03:01:43;150211.81;;;-0.57;100.00
51287;BME280;37364;46.974;18.916;2023-01-29T03:04:33;150214.41;;;-0.56;100.00
51287;BME280;37364;46.974;18.916;2023-01-29T03:07:30;150213.16;;;-0.56;100.00
51287;BME280;37364;46.974;18.916;2023-01-29T03:10:35;150209.28;;;-0.58;100.00
51287;BME280;37364;46.974;18.916;2023-01-29T03:13:37;150193.88;;;-0.64;100.00
51287;BME280;37364;46.974;18.916;2023-01-29T03:16:23;150218.28;;;-0.54;100.00
51287;BME280;37364;46.974;18.916;2023-01-29T03:19:14;150214.41;;;-0.56;100.00
51287;BME280;37364;46.974;18.916;2023-01-29T03:22:15;150215.69;;;-0.55;100.00
51287;BME280;37364;46.974;18.916;2023-01-29T03:25:09;150211.81;;;-0.57;100.00
51287;BME280;37364;46.974;18.916;2023-01-29T03:28:16;150210.56;;;-0.57;100.00
51287;BME280;37364;46.974;18.916;2023-01-29T03:31:25;150206.69;;;-0.59;100.00
51287;BME280;37364;46.974;18.916;2023-01-29T03:34:26;150206.69;;;-0.59;100.00
51287;BME280;37364;46.974;18.916;2023-01-29T03:37:34;150211.81;;;-0.57;100.00
51287;BME280;37364;46.974;18.916;2023-01-29T03:40:48;150224.69;;;-0.52;100.00
51287;BME280;37364;46.974;18.916;2023-01-29T03:43:41;150210.56;;;-0.57;100.00
51287;BME280;37364;46.974;18.916;2023-01-29T03:46:57;150205.44;;;-0.60;100.00
51287;BME280;37364;46.974;18.916;2023-01-29T03:49:53;150199.03;;;-0.62;100.00
51287;BME280;37364;46.974;18.916;2023-01-29T03:52:48;150196.44;;;-0.63;100.00
51287;BME280;37364;46.974;18.916;2023-01-29T03:55:49;150186.16;;;-0.67;100.00
51287;BME280;37364;46.974;18.916;2023-01-29T03:58:49;150199.03;;;-0.62;100.00
51287;BME280;37364;46.974;18.916;2023-01-29T04:02:19;150181.03;;;-0.69;100.00
51287;BME280;37364;46.974;18.916;2023-01-29T04:05:19;150186.16;;;-0.67;100.00
51287;BME280;37364;46.974;18.916;2023-01-29T04:08:33;150190.03;;;-0.66;100.00
51287;BME280;37364;46.974;18.916;2023-01-29T04:11:19;150173.38;;;-0.72;100.00
51287;BME280;37364;46.974;18.916;2023-01-29T04:14:06;150178.50;;;-0.70;100.00
51287;BME280;37364;46.974;18.916;2023-01-29T04:17:02;150181.03;;;-0.69;100.00
51287;BME280;37364;46.974;18.916;2023-01-29T04:20:24;150182.31;;;-0.69;100.00
51287;BME280;37364;46.974;18.916;2023-01-29T04:23:28;150178.50;;;-0.70;100.00
51287;BME280;37364;46.974;18.916;2023-01-29T04:26:20;150179.75;;;-0.70;100.00
51287;BME280;37364;46.974;18.916;2023-01-29T04:29:22;150181.03;;;-0.69;100.00
51287;BME280;37364;46.974;18.916;2023-01-29T04:32:34;150188.75;;;-0.66;100.00
51287;BME280;37364;46.974;18.916;2023-01-29T04:35:40;150186.16;;;-0.67;100.00
51287;BME280;37364;46.974;18.916;2023-01-29T04:39:11;150178.50;;;-0.70;100.00
51287;BME280;37364;46.974;18.916;2023-01-29T04:42:13;150173.38;;;-0.72;100.00
51287;BME280;37364;46.974;18.916;2023-01-29T04:45:15;150172.03;;;-0.73;100.00
51287;BME280;37364;46.974;18.916;2023-01-29T04:48:17;150188.75;;;-0.66;100.00
51287;BME280;37364;46.974;18.916;2023-01-29T04:51:07;150192.63;;;-0.65;100.00
51287;BME280;37364;46.974;18.916;2023-01-29T04:54:11;150190.03;;;-0.66;100.00
51287;BME280;37364;46.974;18.916;2023-01-29T04:56:53;150181.03;;;-0.69;100.00
51287;BME280;37364;46.974;18.916;2023-01-29T04:59:55;150181.03;;;-0.69;100.00
51287;BME280;37364;46.974;18.916;2023-01-29T05:03:11;150195.16;;;-0.64;100.00
51287;BME280;37364;46.974;18.916;2023-01-29T05:06:13;150187.44;;;-0.67;100.00
51287;BME280;37364;46.974;18.916;2023-01-29T05:09:34;150196.44;;;-0.63;100.00
51287;BME280;37364;46.974;18.916;2023-01-29T05:12:40;150193.88;;;-0.64;100.00
51287;BME280;37364;46.974;18.916;2023-01-29T05:15:40;150193.88;;;-0.64;100.00
51287;BME280;37364;46.974;18.916;2023-01-29T05:18:45;150192.63;;;-0.65;100.00
51287;BME280;37364;46.974;18.916;2023-01-29T05:21:43;150195.16;;;-0.64;100.00
51287;BME280;37364;46.974;18.916;2023-01-29T05:24:38;150195.16;;;-0.64;100.00
51287;BME280;37364;46.974;18.916;2023-01-29T05:27:45;150199.03;;;-0.62;100.00
51287;BME280;37364;46.974;18.916;2023-01-29T05:30:52;150184.91;;;-0.68;100.00
51287;BME280;37364;46.974;18.916;2023-01-29T05:33:48;150187.44;;;-0.67;100.00
51287;BME280;37364;46.974;18.916;2023-01-29T05:36:44;150196.44;;;-0.63;100.00
51287;BME280;37364;46.974;18.916;2023-01-29T05:39:29;150183.63;;;-0.68;100.00
51287;BME280;37364;46.974;18.916;2023-01-29T05:42:12;150187.44;;;-0.67;100.00
51287;BME280;37364;46.974;18.916;2023-01-29T05:44:42;150193.88;;;-0.64;100.00
51287;BME280;37364;46.974;18.916;2023-01-29T05:47:13;150211.81;;;-0.57;100.00
51287;BME280;37364;46.974;18.916;2023-01-29T05:49:43;150211.81;;;-0.57;100.00
51287;BME280;37364;46.974;18.916;2023-01-29T05:52:13;150201.56;;;-0.61;100.00
51287;BME280;37364;46.974;18.916;2023-01-29T05:54:47;150216.97;;;-0.55;100.00
51287;BME280;37364;46.974;18.916;2023-01-29T05:57:17;150202.88;;;-0.61;100.00
51287;BME280;37364;46.974;18.916;2023-01-29T05:59:48;150215.69;;;-0.55;100.00
51287;BME280;37364;46.974;18.916;2023-01-29T06:02:18;150206.69;;;-0.59;100.00
51287;BME280;37364;46.974;18.916;2023-01-29T06:04:49;150209.28;;;-0.58;100.00
51287;BME280;37364;46.974;18.916;2023-01-29T06:07:20;150210.56;;;-0.57;100.00
51287;BME280;37364;46.974;18.916;2023-01-29T06:09:53;150195.16;;;-0.64;100.00
51287;BME280;37364;46.974;18.916;2023-01-29T06:12:23;150202.88;;;-0.61;100.00
51287;BME280;37364;46.974;18.916;2023-01-29T06:14:53;150199.03;;;-0.62;100.00
51287;BME280;37364;46.974;18.916;2023-01-29T06:17:23;150196.44;;;-0.63;100.00
51287;BME280;37364;46.974;18.916;2023-01-29T06:19:53;150208.00;;;-0.58;100.00
51287;BME280;37364;46.974;18.916;2023-01-29T06:22:32;150224.69;;;-0.52;100.00
51287;BME280;37364;46.974;18.916;2023-01-29T06:25:07;150215.69;;;-0.55;100.00
51287;BME280;37364;46.974;18.916;2023-01-29T06:27:38;150215.69;;;-0.55;100.00
51287;BME280;37364;46.974;18.916;2023-01-29T06:30:10;150206.69;;;-0.59;100.00
51287;BME280;37364;46.974;18.916;2023-01-29T06:32:40;150204.16;;;-0.60;100.00
51287;BME280;37364;46.974;18.916;2023-01-29T06:35:11;150206.69;;;-0.59;100.00
51287;BME280;37364;46.974;18.916;2023-01-29T06:37:47;150213.16;;;-0.56;100.00
51287;BME280;37364;46.974;18.916;2023-01-29T06:40:19;150214.41;;;-0.56;100.00
51287;BME280;37364;46.974;18.916;2023-01-29T06:42:50;150211.81;;;-0.57;100.00
51287;BME280;37364;46.974;18.916;2023-01-29T06:45:28;150218.28;;;-0.54;100.00
51287;BME280;37364;46.974;18.916;2023-01-29T06:47:59;150190.03;;;-0.66;100.00
51287;BME280;37364;46.974;18.916;2023-01-29T06:50:30;150206.69;;;-0.59;100.00
51287;BME280;37364;46.974;18.916;2023-01-29T06:53:00;150209.28;;;-0.58;100.00
51287;BME280;37364;46.974;18.916;2023-01-29T06:55:34;150211.81;;;-0.57;100.00
51287;BME280;37364;46.974;18.916;2023-01-29T06:58:10;150216.97;;;-0.55;100.00
51287;BME280;37364;46.974;18.916;2023-01-29T07:00:44;150218.28;;;-0.54;100.00
51287;BME280;37364;46.974;18.916;2023-01-29T07:03:15;150214.41;;;-0.56;100.00
51287;BME280;37364;46.974;18.916;2023-01-29T07:05:50;150215.69;;;-0.55;100.00
51287;BME280;37364;46.974;18.916;2023-01-29T07:08:25;150215.69;;;-0.55;100.00
51287;BME280;37364;46.974;18.916;2023-01-29T07:11:01;150233.69;;;-0.48;100.00
51287;BME280;37364;46.974;18.916;2023-01-29T07:13:31;150227.28;;;-0.51;100.00
51287;BME280;37364;46.974;18.916;2023-01-29T07:16:08;150225.97;;;-0.51;100.00
51287;BME280;37364;46.974;18.916;2023-01-29T07:18:38;150229.81;;;-0.50;100.00
51287;BME280;37364;46.974;18.916;2023-01-29T07:21:08;150225.97;;;-0.51;100.00
51287;BME280;37364;46.974;18.916;2023-01-29T07:23:40;150245.22;;;-0.44;100.00
51287;BME280;37364;46.974;18.916;2023-01-29T07:26:13;150223.41;;;-0.52;100.00
51287;BME280;37364;46.974;18.916;2023-01-29T07:28:44;150204.16;;;-0.60;100.00
51287;BME280;37364;46.974;18.916;2023-01-29T07:31:14;150216.97;;;-0.55;100.00
51287;BME280;37364;46.974;18.916;2023-01-29T07:33:47;150225.97;;;-0.51;100.00
51287;BME280;37364;46.974;18.916;2023-01-29T07:36:25;150261.94;;;-0.37;100.00
51287;BME280;37364;46.974;18.916;2023-01-29T07:39:17;150242.69;;;-0.45;100.00
51287;BME280;37364;46.974;18.916;2023-01-29T07:41:55;150224.69;;;-0.52;100.00
51287;BME280;37364;46.974;18.916;2023-01-29T07:44:30;150213.16;;;-0.56;100.00
51287;BME280;37364;46.974;18.916;2023-01-29T07:47:02;150216.97;;;-0.55;100.00
51287;BME280;37364;46.974;18.916;2023-01-29T07:49:37;150242.69;;;-0.45;100.00
51287;BME280;37364;46.974;18.916;2023-01-29T07:52:14;150247.81;;;-0.43;100.00
51287;BME280;37364;46.974;18.916;2023-01-29T07:54:48;150246.53;;;-0.43;100.00
51287;BME280;37364;46.974;18.916;2023-01-29T07:57:22;150269.63;;;-0.34;100.00
51287;BME280;37364;46.974;18.916;2023-01-29T07:59:53;150237.53;;;-0.47;100.00
51287;BME280;37364;46.974;18.916;2023-01-29T08:02:28;150246.53;;;-0.43;100.00
51287;BME280;37364;46.974;18.916;2023-01-29T08:04:58;150260.63;;;-0.37;100.00
51287;BME280;37364;46.974;18.916;2023-01-29T08:07:31;150272.22;;;-0.33;100.00
51287;BME280;37364;46.974;18.916;2023-01-29T08:10:03;150295.28;;;-0.24;100.00
51287;BME280;37364;46.974;18.916;2023-01-29T08:12:36;150269.63;;;-0.34;100.00
51287;BME280;37364;46.974;18.916;2023-01-29T08:15:10;150285.00;;;-0.28;100.00
51287;BME280;37364;46.974;18.916;2023-01-29T08:17:42;150305.59;;;-0.19;100.00
51287;BME280;37364;46.974;18.916;2023-01-29T08:20:25;150300.47;;;-0.22;100.00
51287;BME280;37364;46.974;18.916;2023-01-29T08:22:59;150296.59;;;-0.23;100.00
51287;BME280;37364;46.974;18.916;2023-01-29T08:25:42;150296.59;;;-0.23;100.00
51287;BME280;37364;46.974;18.916;2023-01-29T08:28:16;150299.16;;;-0.22;100.00
51287;BME280;37364;46.974;18.916;2023-01-29T08:30:49;150256.81;;;-0.39;100.00
51287;BME280;37364;46.974;18.916;2023-01-29T08:33:24;150291.47;;;-0.25;100.00
51287;BME280;37364;46.974;18.916;2023-01-29T08:36:09;150294.00;;;-0.24;100.00
51287;BME280;37364;46.974;18.916;2023-01-29T08:38:39;150308.13;;;-0.18;100.00
51287;BME280;37364;46.974;18.916;2023-01-29T08:41:09;150332.53;;;-0.09;100.00
51287;BME280;37364;46.974;18.916;2023-01-29T08:43:45;150353.09;;;-0.01;100.00
51287;BME280;37364;46.974;18.916;2023-01-29T08:46:15;150341.53;;;-0.05;100.00
51287;BME280;37364;46.974;18.916;2023-01-29T08:48:45;150309.41;;;-0.18;100.00
51287;BME280;37364;46.974;18.916;2023-01-29T08:51:17;150291.47;;;-0.25;100.00
51287;BME280;37364;46.974;18.916;2023-01-29T08:53:48;150300.47;;;-0.22;100.00
51287;BME280;37364;46.974;18.916;2023-01-29T08:56:18;150300.47;;;-0.22;100.00
51287;BME280;37364;46.974;18.916;2023-01-29T08:58:50;150347.94;;;-0.03;100.00
51287;BME280;37364;46.974;18.916;2023-01-29T09:01:21;150341.53;;;-0.05;100.00
51287;BME280;37364;46.974;18.916;2023-01-29T09:03:51;150321.00;;;-0.13;100.00
51287;BME280;37364;46.974;18.916;2023-01-29T09:06:30;150342.81;;;-0.05;100.00
51287;BME280;37364;46.974;18.916;2023-01-29T09:09:05;150315.88;;;-0.15;100.00
51287;BME280;37364;46.974;18.916;2023-01-29T09:11:42;150287.59;;;-0.27;100.00
51287;BME280;37364;46.974;18.916;2023-01-29T09:14:17;150309.41;;;-0.18;100.00
51287;BME280;37364;46.974;18.916;2023-01-29T09:16:53;150304.28;;;-0.20;100.00
51287;BME280;37364;46.974;18.916;2023-01-29T09:19:23;150305.59;;;-0.19;100.00
51287;BME280;37364;46.974;18.916;2023-01-29T09:21:54;150313.28;;;-0.16;100.00
51287;BME280;37364;46.974;18.916;2023-01-29T09:24:24;150326.13;;;-0.11;100.00
51287;BME280;37364;46.974;18.916;2023-01-29T09:26:54;150322.28;;;-0.13;100.00
51287;BME280;37364;46.974;18.916;2023-01-29T09:29:27;150331.28;;;-0.09;100.00
51287;BME280;37364;46.974;18.916;2023-01-29T09:32:00;150297.88;;;-0.23;100.00
51287;BME280;37364;46.974;18.916;2023-01-29T09:34:33;150335.13;;;-0.08;100.00
51287;BME280;37364;46.974;18.916;2023-01-29T09:37:11;150350.53;;;-0.02;100.00
51287;BME280;37364;46.974;18.916;2023-01-29T09:39:45;150342.81;;;-0.05;100.00
51287;BME280;37364;46.974;18.916;2023-01-29T09:42:21;150374.94;;;0.08;100.00
51287;BME280;37364;46.974;18.916;2023-01-29T09:45:03;150395.50;;;0.16;100.00
51287;BME280;37364;46.974;18.916;2023-01-29T09:47:35;150354.41;;;0.00;100.00
51287;BME280;37364;46.974;18.916;2023-01-29T09:50:12;150328.69;;;-0.10;100.00
51287;BME280;37364;46.974;18.916;2023-01-29T09:52:55;150362.09;;;0.03;100.00
51287;BME280;37364;46.974;18.916;2023-01-29T09:55:37;150342.81;;;-0.05;100.00
51287;BME280;37364;46.974;18.916;2023-01-29T09:58:15;150324.81;;;-0.12;100.00
51287;BME280;37364;46.974;18.916;2023-01-29T10:11:47;150309.41;;;-0.18;100.00
51287;BME280;37364;46.974;18.916;2023-01-29T10:15:44;150308.13;;;-0.18;100.00
51287;BME280;37364;46.974;18.916;2023-01-29T10:21:23;150296.59;;;-0.23;100.00
51287;BME280;37364;46.974;18.916;2023-01-29T10:24:03;150326.13;;;-0.11;100.00
51287;BME280;37364;46.974;18.916;2023-01-29T10:26:39;150294.00;;;-0.24;100.00
51287;BME280;37364;46.974;18.916;2023-01-29T10:29:15;150309.41;;;-0.18;100.00
51287;BME280;37364;46.974;18.916;2023-01-29T10:31:51;150286.34;;;-0.27;100.00
51287;BME280;37364;46.974;18.916;2023-01-29T10:34:28;150251.66;;;-0.41;100.00
51287;BME280;37364;46.974;18.916;2023-01-29T10:37:07;150240.09;;;-0.46;100.00
51287;BME280;37364;46.974;18.916;2023-01-29T10:39:44;150246.53;;;-0.43;100.00
51287;BME280;37364;46.974;18.916;2023-01-29T10:42:24;150265.75;;;-0.35;100.00
51287;BME280;37364;46.974;18.916;2023-01-29T10:45:15;150279.88;;;-0.30;100.00
51287;BME280;37364;46.974;18.916;2023-01-29T10:48:08;150242.69;;;-0.45;100.00
51287;BME280;37364;46.974;18.916;2023-01-29T10:50:49;150268.34;;;-0.34;100.00
51287;BME280;37364;46.974;18.916;2023-01-29T10:53:29;150277.34;;;-0.31;100.00
51287;BME280;37364;46.974;18.916;2023-01-29T10:56:11;150270.88;;;-0.33;100.00
51287;BME280;37364;46.974;18.916;2023-01-29T10:58:55;150299.16;;;-0.22;100.00
51287;BME280;37364;46.974;18.916;2023-01-29T11:01:29;150263.22;;;-0.36;100.00
51287;BME280;37364;46.974;18.916;2023-01-29T11:04:04;150300.47;;;-0.22;100.00
51287;BME280;37364;46.974;18.916;2023-01-29T11:06:36;150314.56;;;-0.16;100.00
51287;BME280;37364;46.974;18.916;2023-01-29T11:09:13;150351.81;;;-0.01;100.00
51287;BME280;37364;46.974;18.916;2023-01-29T11:11:55;150331.28;;;-0.09;100.00
51287;BME280;37364;46.974;18.916;2023-01-29T11:14:35;150287.59;;;-0.27;100.00
51287;BME280;37364;46.974;18.916;2023-01-29T11:17:14;150295.28;;;-0.24;100.00
51287;BME280;37364;46.974;18.916;2023-01-29T11:19:49;150324.81;;;-0.12;100.00
51287;BME280;37364;46.974;18.916;2023-01-29T11:22:23;150330.00;;;-0.10;100.00
51287;BME280;37364;46.974;18.916;2023-01-29T11:25:09;150324.81;;;-0.12;100.00
51287;BME280;37364;46.974;18.916;2023-01-29T11:27:49;150314.56;;;-0.16;100.00
51287;BME280;37364;46.974;18.916;2023-01-29T11:30:27;150299.16;;;-0.22;100.00
51287;BME280;37364;46.974;18.916;2023-01-29T11:33:05;150300.47;;;-0.22;100.00
51287;BME280;37364;46.974;18.916;2023-01-29T11:35:37;150290.16;;;-0.26;100.00
51287;BME280;37364;46.974;18.916;2023-01-29T11:38:18;150288.88;;;-0.26;100.00
51287;BME280;37364;46.974;18.916;2023-01-29T11:40:52;150300.47;;;-0.22;100.00
51287;BME280;37364;46.974;18.916;2023-01-29T11:43:33;150313.28;;;-0.16;100.00
51287;BME280;37364;46.974;18.916;2023-01-29T11:46:13;150327.41;;;-0.11;100.00
51287;BME280;37364;46.974;18.916;2023-01-29T11:48:50;150363.34;;;0.04;100.00
51287;BME280;37364;46.974;18.916;2023-01-29T11:51:33;150318.41;;;-0.14;100.00
51287;BME280;37364;46.974;18.916;2023-01-29T11:54:15;150314.56;;;-0.16;100.00
51287;BME280;37364;46.974;18.916;2023-01-29T11:56:47;150340.28;;;-0.06;100.00
51287;BME280;37364;46.974;18.916;2023-01-29T11:59:29;150344.09;;;-0.04;100.00
51287;BME280;37364;46.974;18.916;2023-01-29T12:02:18;150344.09;;;-0.04;100.00
51287;BME280;37364;46.974;18.916;2023-01-29T12:04:54;150338.94;;;-0.06;100.00
51287;BME280;37364;46.974;18.916;2023-01-29T12:07:27;150344.09;;;-0.04;100.00
51287;BME280;37364;46.974;18.916;2023-01-29T12:09:59;150408.31;;;0.22;100.00
51287;BME280;37364;46.974;18.916;2023-01-29T12:12:33;150355.69;;;0.01;100.00
51287;BME280;37364;46.974;18.916;2023-01-29T12:15:17;150407.03;;;0.21;100.00
51287;BME280;37364;46.974;18.916;2023-01-29T12:17:57;150437.91;;;0.33;100.00
51287;BME280;37364;46.974;18.916;2023-01-29T12:20:35;150365.94;;;0.05;100.00
51287;BME280;37364;46.974;18.916;2023-01-29T12:23:21;150387.75;;;0.13;100.00
51287;BME280;37364;46.974;18.916;2023-01-29T12:26:00;150481.53;;;0.51;100.00
51287;BME280;37364;46.974;18.916;2023-01-29T12:28:43;150459.72;;;0.42;100.00
51287;BME280;37364;46.974;18.916;2023-01-29T12:31:33;150394.22;;;0.16;100.00
51287;BME280;37364;46.974;18.916;2023-01-29T12:34:14;150374.94;;;0.08;100.00
51287;BME280;37364;46.974;18.916;2023-01-29T12:36:51;150349.22;;;-0.02;100.00
51287;BME280;37364;46.974;18.916;2023-01-29T12:39:24;150336.41;;;-0.07;100.00
51287;BME280;37364;46.974;18.916;2023-01-29T12:41:58;150363.34;;;0.04;100.00
51287;BME280;37364;46.974;18.916;2023-01-29T12:44:33;150346.69;;;-0.03;100.00
51287;BME280;37364;46.974;18.916;2023-01-29T12:47:16;150327.41;;;-0.11;100.00
51287;BME280;37364;46.974;18.916;2023-01-29T12:49:54;150269.63;;;-0.34;100.00
51287;BME280;37364;46.974;18.916;2023-01-29T12:52:35;150286.34;;;-0.27;100.00
51287;BME280;37364;46.974;18.916;2023-01-29T12:55:10;150243.94;;;-0.44;100.00
51287;BME280;37364;46.974;18.916;2023-01-29T12:57:44;150249.09;;;-0.42;100.00
51287;BME280;37364;46.974;18.916;2023-01-29T13:00:22;150305.59;;;-0.19;100.00
51287;BME280;37364;46.974;18.916;2023-01-29T13:02:57;150314.56;;;-0.16;100.00
51287;BME280;37364;46.974;18.916;2023-01-29T13:05:36;150342.81;;;-0.05;100.00
51287;BME280;37364;46.974;18.916;2023-01-29T13:08:15;150340.28;;;-0.06;100.00
51287;BME280;37364;46.974;18.916;2023-01-29T13:10:51;150317.13;;;-0.15;100.00
51287;BME280;37364;46.974;18.916;2023-01-29T13:13:27;150340.28;;;-0.06;100.00
51287;BME280;37364;46.974;18.916;2023-01-29T13:16:00;150350.53;;;-0.02;100.00
51287;BME280;37364;46.974;18.916;2023-01-29T13:18:39;150349.22;;;-0.02;100.00
51287;BME280;37364;46.974;18.916;2023-01-29T13:21:17;150398.03;;;0.17;100.00
51287;BME280;37364;46.974;18.916;2023-01-29T13:23:50;150392.88;;;0.15;100.00
51287;BME280;37364;46.974;18.916;2023-01-29T13:26:28;150378.75;;;0.10;100.00
51287;BME280;37364;46.974;18.916;2023-01-29T13:28:58;150412.16;;;0.23;100.00
51287;BME280;37364;46.974;18.916;2023-01-29T13:31:36;150407.03;;;0.21;100.00
51287;BME280;37364;46.974;18.916;2023-01-29T13:34:14;150359.53;;;0.02;100.00
51287;BME280;37364;46.974;18.916;2023-01-29T13:36:50;150367.22;;;0.05;100.00
51287;BME280;37364;46.974;18.916;2023-01-29T13:39:23;150360.81;;;0.03;100.00
51287;BME280;37364;46.974;18.916;2023-01-29T13:41:59;150381.34;;;0.11;100.00
51287;BME280;37364;46.974;18.916;2023-01-29T13:44:33;150386.50;;;0.13;100.00
51287;BME280;37364;46.974;18.916;2023-01-29T13:47:09;150309.41;;;-0.18;100.00
51287;BME280;37364;46.974;18.916;2023-01-29T13:49:42;150364.69;;;0.04;100.00
51287;BME280;37364;46.974;18.916;2023-01-29T13:52:23;150363.34;;;0.04;100.00
51287;BME280;37364;46.974;18.916;2023-01-29T13:54:56;150412.16;;;0.23;100.00
51287;BME280;37364;46.974;18.916;2023-01-29T13:57:47;150493.13;;;0.55;100.00
51287;BME280;37364;46.974;18.916;2023-01-29T14:03:55;150543.22;;;0.75;100.00
51287;BME280;37364;46.974;18.916;2023-01-29T14:06:47;150522.69;;;0.67;100.00